Time;durP1;ratioP1;P1;durP2;ratioP2;P2;SDS_P1;SDS_P2;PMS_P1;PMS_P2;Temp;Humidity;BMP_temperature;BMP_pressure;BME280_temperature;BME280_humidity;BME280_pressure;Samples;Min_cycle;Max_cycle;Signal;HPM_P1;HPM_P2
2021/01/25 00:02:05;;;;;;;70.75;31.08;;;;;;;;;;5035400;28;20113;-72
2021/01/25 00:04:30;;;;;;;73.18;33.83;;;;;;;;;;5034947;28;20068;-72
2021/01/25 00:06:57;;;;;;;65.50;30.65;;;;;;;;;;5034841;28;20013;-72
2021/01/25 00:09:22;;;;;;;50.22;25.85;;;;;;;;;;5033689;28;20026;-72
2021/01/25 00:11:48;;;;;;;59.47;27.73;;;;;;;;;;5034938;28;20021;-71
2021/01/25 00:14:13;;;;;;;72.38;30.92;;;;;;;;;;5034697;28;20049;-71
2021/01/25 00:16:39;;;;;;;74.68;32.90;;;;;;;;;;5034900;28;20432;-71
2021/01/25 00:19:04;;;;;;;76.10;32.00;;;;;;;;;;5033709;28;20460;-71
2021/01/25 00:21:30;;;;;;;69.15;31.52;;;;;;;;;;5034043;28;20140;-71
2021/01/25 00:23:58;;;;;;;72.00;30.27;;;;;;;;;;5034794;28;20060;-72
2021/01/25 00:26:24;;;;;;;67.80;30.65;;;;;;;;;;5034640;28;20017;-71
2021/01/25 00:28:50;;;;;;;68.38;31.38;;;;;;;;;;5033284;28;20049;-71
2021/01/25 00:31:15;;;;;;;50.15;25.08;;;;;;;;;;5033217;28;20028;-71
2021/01/25 00:33:41;;;;;;;47.83;23.30;;;;;;;;;;5034179;28;20101;-71
2021/01/25 00:36:06;;;;;;;44.13;21.50;;;;;;;;;;5034420;28;20045;-72
2021/01/25 00:38:32;;;;;;;39.85;21.05;;;;;;;;;;5034273;28;20064;-71
2021/01/25 00:40:57;;;;;;;48.72;22.60;;;;;;;;;;5033859;28;20026;-71
2021/01/25 00:43:24;;;;;;;50.72;22.92;;;;;;;;;;5034484;28;20109;-71
2021/01/25 00:45:49;;;;;;;54.05;23.98;;;;;;;;;;5033172;28;20017;-71
2021/01/25 00:48:15;;;;;;;54.63;24.98;;;;;;;;;;5034435;28;20040;-71
2021/01/25 00:50:41;;;;;;;43.85;20.95;;;;;;;;;;5032490;28;20021;-71
2021/01/25 00:53:08;;;;;;;49.58;23.02;;;;;;;;;;5034090;28;20023;-71
2021/01/25 00:55:34;;;;;;;58.15;26.80;;;;;;;;;;5032828;28;20018;-71
2021/01/25 00:58:01;;;;;;;55.88;26.13;;;;;;;;;;5032752;28;20083;-71
2021/01/25 01:00:26;;;;;;;46.15;22.77;;;;;;;;;;5033717;28;20104;-71
2021/01/25 01:02:52;;;;;;;44.85;23.27;;;;;;;;;;5033879;28;20073;-71
2021/01/25 01:05:17;;;;;;;49.70;22.40;;;;;;;;;;5016294;28;20025;-71
2021/01/25 01:07:45;;;;;;;48.20;21.23;;;;;;;;;;5034111;28;20033;-71
2021/01/25 01:10:13;;;;;;;43.67;21.23;;;;;;;;;;5034006;28;20017;-71
2021/01/25 01:12:39;;;;;;;42.35;20.17;;;;;;;;;;5031678;28;20120;-72
2021/01/25 01:15:07;;;;;;;42.47;19.63;;;;;;;;;;5033807;28;20121;-71
2021/01/25 01:17:32;;;;;;;37.58;19.00;;;;;;;;;;5032330;28;20404;-71
2021/01/25 01:19:58;;;;;;;36.70;17.67;;;;;;;;;;5032334;28;20030;-72
2021/01/25 01:22:23;;;;;;;32.20;17.08;;;;;;;;;;5033485;28;20029;-71
2021/01/25 01:24:49;;;;;;;36.78;17.17;;;;;;;;;;5033491;28;20594;-71
2021/01/25 01:27:15;;;;;;;36.92;17.90;;;;;;;;;;5032346;28;20029;-71
2021/01/25 01:29:40;;;;;;;34.25;18.08;;;;;;;;;;5033375;28;20025;-72
2021/01/25 01:32:05;;;;;;;32.50;17.20;;;;;;;;;;5033374;28;20022;-72
2021/01/25 01:34:32;;;;;;;35.45;17.20;;;;;;;;;;5033577;28;20357;-72
2021/01/25 01:36:57;;;;;;;32.42;16.05;;;;;;;;;;5033508;28;20030;-71
2021/01/25 01:39:24;;;;;;;31.58;15.80;;;;;;;;;;5033456;28;20028;-71
2021/01/25 01:41:49;;;;;;;33.47;16.17;;;;;;;;;;5033553;28;20056;-71
2021/01/25 01:44:15;;;;;;;33.80;16.77;;;;;;;;;;5032141;28;20136;-72
2021/01/25 01:46:42;;;;;;;37.20;17.30;;;;;;;;;;5032191;28;20042;-71
2021/01/25 01:52:42;;;;;;;41.67;18.52;;;;;;;;;;5035878;28;20044;-71
2021/01/25 01:55:10;;;;;;;37.80;17.85;;;;;;;;;;5037258;28;20483;-70
2021/01/25 01:57:37;;;;;;;48.20;19.67;;;;;;;;;;5037299;28;20029;-71
2021/01/25 02:00:04;;;;;;;52.03;20.92;;;;;;;;;;5037300;28;20021;-71
2021/01/25 02:02:38;;;;;;;44.78;19.30;;;;;;;;;;5037406;28;20450;-71
2021/01/25 02:18:27;;;;;;;31.33;15.40;;;;;;;;;;5037148;28;20025;-71
2021/01/25 02:20:52;;;;;;;31.42;14.27;;;;;;;;;;5036928;28;20033;-71
2021/01/25 02:23:24;;;;;;;32.10;14.57;;;;;;;;;;5036778;28;20035;-72
2021/01/25 02:26:00;;;;;;;32.28;14.80;;;;;;;;;;5036755;28;20040;-71
2021/01/25 02:28:26;;;;;;;32.70;14.13;;;;;;;;;;5036727;28;20082;-71
2021/01/25 02:30:53;;;;;;;29.00;14.40;;;;;;;;;;5036765;28;20017;-71
2021/01/25 02:33:19;;;;;;;31.02;14.88;;;;;;;;;;5035227;28;20379;-71
2021/01/25 02:35:45;;;;;;;32.55;15.10;;;;;;;;;;5036908;28;20383;-71
2021/01/25 02:38:11;;;;;;;30.75;14.63;;;;;;;;;;5036676;28;20038;-71
2021/01/25 02:40:37;;;;;;;29.88;14.60;;;;;;;;;;5036307;28;20021;-71
2021/01/25 02:43:05;;;;;;;28.65;14.15;;;;;;;;;;5036468;28;20033;-71
2021/01/25 02:45:34;;;;;;;28.65;14.45;;;;;;;;;;5036475;28;20670;-72
2021/01/25 02:48:00;;;;;;;31.80;15.98;;;;;;;;;;5036581;28;20036;-71
2021/01/25 02:50:26;;;;;;;31.77;16.65;;;;;;;;;;5036208;28;20021;-71
2021/01/25 02:52:52;;;;;;;38.60;18.92;;;;;;;;;;5036293;28;20024;-71
2021/01/25 02:55:18;;;;;;;34.90;17.08;;;;;;;;;;5036114;28;20021;-71
2021/01/25 02:57:45;;;;;;;33.42;16.17;;;;;;;;;;5036249;28;20029;-71
2021/01/25 03:00:12;;;;;;;31.50;15.65;;;;;;;;;;5036458;28;20023;-71
2021/01/25 03:02:37;;;;;;;32.42;16.52;;;;;;;;;;5035890;28;20033;-70
2021/01/25 03:05:04;;;;;;;28.85;15.82;;;;;;;;;;5035966;28;20027;-71
2021/01/25 03:07:29;;;;;;;31.90;15.68;;;;;;;;;;5036147;28;20038;-71
2021/01/25 03:09:58;;;;;;;31.50;15.55;;;;;;;;;;5034804;28;20017;-71
2021/01/25 03:12:24;;;;;;;32.38;16.65;;;;;;;;;;5035833;28;20038;-71
2021/01/25 03:14:49;;;;;;;31.27;15.07;;;;;;;;;;5036534;28;20036;-71
2021/01/25 03:17:17;;;;;;;30.08;15.23;;;;;;;;;;5035909;28;20108;-71
2021/01/25 03:19:42;;;;;;;33.38;16.20;;;;;;;;;;5035651;28;20439;-71
2021/01/25 03:22:08;;;;;;;29.25;15.45;;;;;;;;;;5035748;28;20041;-71
2021/01/25 03:24:33;;;;;;;30.08;16.70;;;;;;;;;;5035919;28;20021;-71
2021/01/25 03:26:59;;;;;;;32.60;17.10;;;;;;;;;;5036025;28;20071;-71
2021/01/25 03:29:26;;;;;;;29.60;15.50;;;;;;;;;;5035779;28;20364;-71
2021/01/25 03:31:52;;;;;;;28.58;15.73;;;;;;;;;;5035522;28;20032;-71
2021/01/25 03:34:17;;;;;;;31.10;15.45;;;;;;;;;;5034366;28;20021;-71
2021/01/25 03:36:43;;;;;;;29.33;15.55;;;;;;;;;;5035731;28;20091;-71
2021/01/25 03:39:08;;;;;;;30.30;15.45;;;;;;;;;;5035937;28;20056;-71
2021/01/25 03:41:34;;;;;;;36.13;18.10;;;;;;;;;;5035691;28;20084;-72
2021/01/25 03:44:00;;;;;;;38.33;19.55;;;;;;;;;;5035418;28;20468;-72
2021/01/25 03:46:25;;;;;;;41.45;19.70;;;;;;;;;;5035631;28;20079;-72
2021/01/25 03:48:51;;;;;;;34.83;17.20;;;;;;;;;;5035216;28;20526;-71
2021/01/25 03:51:19;;;;;;;33.92;18.52;;;;;;;;;;5035122;28;20112;-72
2021/01/25 03:53:45;;;;;;;35.60;17.90;;;;;;;;;;5035012;28;20018;-72
2021/01/25 03:56:10;;;;;;;29.20;15.60;;;;;;;;;;5035347;28;20021;-72
2021/01/25 03:58:36;;;;;;;30.55;15.57;;;;;;;;;;5035052;28;20108;-72
2021/01/25 04:01:02;;;;;;;28.48;14.80;;;;;;;;;;5034532;28;20041;-71
2021/01/25 04:03:28;;;;;;;32.05;15.57;;;;;;;;;;5035143;28;20025;-72
2021/01/25 04:05:54;;;;;;;30.98;15.85;;;;;;;;;;5034947;28;20029;-72
2021/01/25 04:08:19;;;;;;;31.95;15.55;;;;;;;;;;5034777;28;20014;-72
2021/01/25 04:10:45;;;;;;;29.70;15.55;;;;;;;;;;5035013;28;20036;-72
2021/01/25 04:13:16;;;;;;;27.67;14.90;;;;;;;;;;5034247;28;20045;-71
2021/01/25 04:15:43;;;;;;;29.38;15.30;;;;;;;;;;5034088;28;20075;-71
2021/01/25 04:18:08;;;;;;;25.60;13.93;;;;;;;;;;5034973;28;20484;-71
2021/01/25 04:20:34;;;;;;;25.92;13.98;;;;;;;;;;5033633;28;20036;-72
2021/01/25 04:22:59;;;;;;;28.45;13.80;;;;;;;;;;5034706;28;20025;-71
2021/01/25 04:25:25;;;;;;;31.60;14.93;;;;;;;;;;5033446;28;20124;-71
2021/01/25 04:27:50;;;;;;;28.95;14.02;;;;;;;;;;5034773;28;20467;-71
2021/01/25 04:30:16;;;;;;;29.08;13.60;;;;;;;;;;5034412;28;20036;-71
2021/01/25 04:32:42;;;;;;;26.15;13.00;;;;;;;;;;5034634;28;20041;-71
2021/01/25 04:35:09;;;;;;;28.48;12.85;;;;;;;;;;5034654;28;20361;-71
2021/01/25 04:37:34;;;;;;;26.73;12.73;;;;;;;;;;5016878;28;20025;-70
2021/01/25 04:40:00;;;;;;;26.15;13.63;;;;;;;;;;5034352;28;20045;-71
2021/01/25 04:42:26;;;;;;;25.33;12.50;;;;;;;;;;5033056;28;20029;-71
2021/01/25 04:44:51;;;;;;;28.30;14.27;;;;;;;;;;5034413;28;20037;-71
2021/01/25 04:47:19;;;;;;;43.25;19.65;;;;;;;;;;5033965;28;20025;-70
2021/01/25 04:49:45;;;;;;;31.98;16.73;;;;;;;;;;5033949;28;20026;-70
2021/01/25 04:52:13;;;;;;;37.03;17.30;;;;;;;;;;5033964;28;20464;-70
2021/01/25 04:54:39;;;;;;;41.53;19.10;;;;;;;;;;5033902;28;20083;-70
2021/01/25 04:57:05;;;;;;;45.47;20.88;;;;;;;;;;5034286;28;20096;-72
2021/01/25 04:59:34;;;;;;;56.13;23.52;;;;;;;;;;5032813;28;20111;-71
2021/01/25 05:01:59;;;;;;;53.67;22.95;;;;;;;;;;5033961;28;20017;-72
2021/01/25 05:04:25;;;;;;;54.03;22.10;;;;;;;;;;5032911;28;20530;-71
2021/01/25 05:06:50;;;;;;;50.95;23.10;;;;;;;;;;5034167;28;20021;-71
2021/01/25 05:09:16;;;;;;;53.45;22.98;;;;;;;;;;5033969;28;20025;-71
2021/01/25 05:11:42;;;;;;;46.17;22.45;;;;;;;;;;5032469;28;20010;-71
2021/01/25 05:14:08;;;;;;;53.03;23.13;;;;;;;;;;5033713;28;20057;-72
2021/01/25 05:16:36;;;;;;;49.25;22.08;;;;;;;;;;5033952;28;20379;-72
2021/01/25 05:19:04;;;;;;;51.70;22.65;;;;;;;;;;5034023;28;20025;-72
2021/01/25 05:21:42;;;;;;;55.97;26.25;;;;;;;;;;5032436;28;20014;-72
2021/01/25 05:24:10;;;;;;;58.67;24.85;;;;;;;;;;5033731;28;20033;-71
2021/01/25 05:26:39;;;;;;;53.80;24.73;;;;;;;;;;5033206;28;20032;-72
2021/01/25 05:29:05;;;;;;;50.28;23.02;;;;;;;;;;5033454;28;20032;-71
2021/01/25 05:31:31;;;;;;;57.95;25.05;;;;;;;;;;5032333;28;20022;-71
2021/01/25 05:33:57;;;;;;;52.35;23.55;;;;;;;;;;5033660;28;20033;-71
2021/01/25 05:36:26;;;;;;;52.05;22.52;;;;;;;;;;5033382;28;20028;-72
2021/01/25 05:38:53;;;;;;;47.33;21.63;;;;;;;;;;5033624;28;20026;-71
2021/01/25 05:41:19;;;;;;;37.38;18.40;;;;;;;;;;5033415;28;20029;-70
2021/01/25 05:43:46;;;;;;;28.90;15.80;;;;;;;;;;5033258;28;20026;-72
2021/01/25 05:46:12;;;;;;;27.67;15.35;;;;;;;;;;5033204;28;20026;-71
2021/01/25 05:48:38;;;;;;;29.45;16.58;;;;;;;;;;5032608;28;20488;-71
2021/01/25 05:51:16;;;;;;;31.38;15.55;;;;;;;;;;5033730;28;20044;-71
2021/01/25 05:53:44;;;;;;;31.13;15.52;;;;;;;;;;5033485;28;20025;-71
2021/01/25 05:56:11;;;;;;;27.33;15.75;;;;;;;;;;5033374;28;20456;-71
2021/01/25 05:58:37;;;;;;;27.27;14.70;;;;;;;;;;5033403;28;20364;-71
2021/01/25 06:01:03;;;;;;;27.45;14.27;;;;;;;;;;5031901;28;20028;-71
2021/01/25 06:03:31;;;;;;;31.50;14.45;;;;;;;;;;5033229;28;20488;-71
2021/01/25 06:05:56;;;;;;;29.23;14.50;;;;;;;;;;5032398;28;20026;-72
2021/01/25 06:08:22;;;;;;;31.35;15.10;;;;;;;;;;5033320;28;20075;-71
2021/01/25 06:10:55;;;;;;;30.65;14.75;;;;;;;;;;5033370;28;20479;-71
2021/01/25 06:13:22;;;;;;;29.13;13.85;;;;;;;;;;5032676;28;20503;-71
2021/01/25 06:15:48;;;;;;;28.35;14.38;;;;;;;;;;5033003;28;20112;-72
2021/01/25 06:18:15;;;;;;;28.27;15.10;;;;;;;;;;5033220;28;20484;-70
2021/01/25 06:20:41;;;;;;;26.58;15.00;;;;;;;;;;5033215;28;20021;-70
2021/01/25 06:23:08;;;;;;;31.08;15.65;;;;;;;;;;5033082;28;20033;-67
2021/01/25 06:25:34;;;;;;;30.05;14.77;;;;;;;;;;5033278;28;20112;-71
2021/01/25 06:28:00;;;;;;;30.95;15.13;;;;;;;;;;5033513;28;20482;-71
2021/01/25 06:30:26;;;;;;;31.05;14.82;;;;;;;;;;5033431;28;20053;-70
2021/01/25 06:32:53;;;;;;;30.60;14.98;;;;;;;;;;5033088;28;20050;-71
2021/01/25 06:35:19;;;;;;;30.42;14.82;;;;;;;;;;5032586;28;20048;-71
2021/01/25 06:37:54;;;;;;;32.30;15.32;;;;;;;;;;5032809;28;20114;-71
2021/01/25 06:40:24;;;;;;;31.05;15.05;;;;;;;;;;5036468;28;20491;-65
2021/01/25 06:42:50;;;;;;;33.72;15.63;;;;;;;;;;5036522;28;20341;-65
2021/01/25 06:45:15;;;;;;;31.08;14.85;;;;;;;;;;5036004;28;20041;-65
2021/01/25 06:47:47;;;;;;;37.35;16.02;;;;;;;;;;5036215;28;20017;-65
2021/01/25 06:50:12;;;;;;;32.45;16.92;;;;;;;;;;5036275;28;20029;-65
2021/01/25 06:52:38;;;;;;;36.00;16.70;;;;;;;;;;5036181;28;20022;-64
2021/01/25 06:55:05;;;;;;;32.17;16.20;;;;;;;;;;5036541;28;20029;-63
2021/01/25 06:57:40;;;;;;;34.80;16.58;;;;;;;;;;5036056;28;20028;-64
2021/01/25 07:00:09;;;;;;;33.40;16.13;;;;;;;;;;5029796;28;20053;-64
2021/01/25 07:02:57;;;;;;;31.27;16.25;;;;;;;;;;5033647;28;20042;-64
2021/01/25 07:05:30;;;;;;;31.20;15.82;;;;;;;;;;5034474;28;20388;-64
2021/01/25 07:08:14;;;;;;;32.83;15.80;;;;;;;;;;5034705;28;20468;-64
2021/01/25 07:10:47;;;;;;;29.65;15.15;;;;;;;;;;5035032;28;20108;-64
2021/01/25 07:13:13;;;;;;;31.33;15.20;;;;;;;;;;5034666;28;20037;-64
2021/01/25 07:15:38;;;;;;;31.55;14.93;;;;;;;;;;5034849;28;20044;-65
2021/01/25 07:18:04;;;;;;;23.40;13.93;;;;;;;;;;5036005;28;20041;-64
2021/01/25 07:20:30;;;;;;;27.13;14.05;;;;;;;;;;5035296;28;20105;-65
2021/01/25 07:22:56;;;;;;;33.28;15.82;;;;;;;;;;5035980;28;20120;-65
2021/01/25 07:25:22;;;;;;;28.13;14.02;;;;;;;;;;5035701;28;20022;-65
2021/01/25 07:27:47;;;;;;;25.83;14.40;;;;;;;;;;5035923;28;20032;-65
2021/01/25 07:30:13;;;;;;;24.67;12.52;;;;;;;;;;5035801;28;20009;-67
2021/01/25 07:32:38;;;;;;;23.17;12.25;;;;;;;;;;5035911;28;20053;-67
2021/01/25 07:35:04;;;;;;;26.45;13.82;;;;;;;;;;5035851;28;20064;-66
2021/01/25 07:37:30;;;;;;;26.92;13.63;;;;;;;;;;5035587;28;20049;-66
2021/01/25 07:39:56;;;;;;;36.88;18.90;;;;;;;;;;5035458;28;20022;-66
2021/01/25 07:42:22;;;;;;;27.23;13.45;;;;;;;;;;5035416;28;20068;-67
2021/01/25 07:44:48;;;;;;;19.30;11.27;;;;;;;;;;5035286;28;20017;-66
2021/01/25 07:47:19;;;;;;;24.23;12.52;;;;;;;;;;5035575;28;20056;-67
2021/01/25 07:49:45;;;;;;;;;;;;;;;;;;5032983;28;20033;-66
2021/01/25 07:52:17;;;;;;;20.95;11.07;;;;;;;;;;5025916;28;19916;-66
2021/01/25 07:54:47;;;;;;;21.13;11.52;;;;;;;;;;5023008;28;20026;-66
2021/01/25 07:57:21;;;;;;;22.73;12.43;;;;;;;;;;5031885;28;20009;-66
2021/01/25 07:59:47;;;;;;;19.55;12.20;;;;;;;;;;5032231;28;20056;-66
2021/01/25 08:02:15;;;;;;;20.38;12.20;;;;;;;;;;5034165;28;20064;-66
2021/01/25 08:04:43;;;;;;;20.60;11.95;;;;;;;;;;5024868;28;20026;-67
2021/01/25 08:07:12;;;;;;;20.17;12.05;;;;;;;;;;5025188;28;20108;-67
2021/01/25 08:09:39;;;;;;;21.10;14.07;;;;;;;;;;5022808;28;20076;-67
2021/01/25 08:12:05;;;;;;;26.50;16.52;;;;;;;;;;5032106;28;20005;-66
2021/01/25 08:14:35;;;;;;;25.10;17.60;;;;;;;;;;5034262;28;20462;-67
2021/01/25 08:17:02;;;;;;;20.27;13.50;;;;;;;;;;5029502;28;20033;-67
2021/01/25 08:19:33;;;;;;;20.08;12.35;;;;;;;;;;5033798;28;20104;-67
2021/01/25 08:22:03;;;;;;;16.90;11.27;;;;;;;;;;5031999;28;20038;-71
2021/01/25 08:24:30;;;;;;;18.60;12.68;;;;;;;;;;5033482;28;20131;-72
2021/01/25 08:27:05;;;;;;;19.83;11.93;;;;;;;;;;5034802;28;20029;-72
2021/01/25 08:29:31;;;;;;;17.02;10.48;;;;;;;;;;5034725;28;20071;-72
2021/01/25 08:31:56;;;;;;;19.70;12.45;;;;;;;;;;5034702;28;20357;-72
2021/01/25 08:34:25;;;;;;;19.08;11.18;;;;;;;;;;5034204;28;20131;-72
2021/01/25 08:37:08;;;;;;;16.75;11.10;;;;;;;;;;5033170;28;20108;-69
2021/01/25 08:39:38;;;;;;;14.52;10.77;;;;;;;;;;5034577;28;20029;-69
2021/01/25 08:42:11;;;;;;;19.88;11.98;;;;;;;;;;5034461;28;20029;-69
2021/01/25 08:44:41;;;;;;;17.58;11.30;;;;;;;;;;5032047;28;20108;-70
2021/01/25 08:47:08;;;;;;;17.75;11.80;;;;;;;;;;5026900;28;20040;-69
2021/01/25 08:49:41;;;;;;;16.25;11.45;;;;;;;;;;5034039;28;20376;-69
2021/01/25 08:52:09;;;;;;;17.20;11.60;;;;;;;;;;5032641;28;20025;-69
2021/01/25 08:54:37;;;;;;;17.92;11.68;;;;;;;;;;5031152;28;20021;-71
2021/01/25 08:57:13;;;;;;;16.83;10.95;;;;;;;;;;5030883;28;20045;-70
2021/01/25 08:59:42;;;;;;;18.15;11.15;;;;;;;;;;5032614;28;20025;-69
2021/01/25 09:02:12;;;;;;;16.63;10.85;;;;;;;;;;5033684;28;20018;-69
2021/01/25 09:04:38;;;;;;;15.38;11.00;;;;;;;;;;5034217;28;20075;-69
2021/01/25 09:07:08;;;;;;;15.30;11.20;;;;;;;;;;5033992;28;20427;-69
2021/01/25 09:09:34;;;;;;;16.27;11.18;;;;;;;;;;5034014;28;20029;-69
2021/01/25 09:12:00;;;;;;;15.73;10.65;;;;;;;;;;5033630;28;20020;-69
2021/01/25 09:14:26;;;;;;;17.58;11.80;;;;;;;;;;5034083;28;20026;-69
2021/01/25 09:16:53;;;;;;;14.80;11.25;;;;;;;;;;5033635;28;20018;-69
2021/01/25 09:19:18;;;;;;;15.48;10.63;;;;;;;;;;5033958;28;20435;-69
2021/01/25 09:21:45;;;;;;;13.98;10.55;;;;;;;;;;5034038;28;20125;-69
2021/01/25 09:24:11;;;;;;;17.40;11.52;;;;;;;;;;5033753;28;20075;-70
2021/01/25 09:26:36;;;;;;;20.25;12.57;;;;;;;;;;5033584;28;20357;-70
2021/01/25 09:29:02;;;;;;;18.15;11.98;;;;;;;;;;5032878;28;20030;-71
2021/01/25 09:31:29;;;;;;;15.77;11.65;;;;;;;;;;5032998;28;20033;-70
2021/01/25 09:33:55;;;;;;;19.08;13.32;;;;;;;;;;5032864;28;20024;-71
2021/01/25 09:36:20;;;;;;;24.30;16.50;;;;;;;;;;5033368;28;20375;-71
2021/01/25 09:38:46;;;;;;;25.17;14.98;;;;;;;;;;5032387;28;20021;-71
2021/01/25 09:41:11;;;;;;;23.35;14.48;;;;;;;;;;5027310;28;20549;-70
2021/01/25 09:43:37;;;;;;;21.65;14.02;;;;;;;;;;5033251;28;20033;-70
2021/01/25 09:46:03;;;;;;;21.58;14.05;;;;;;;;;;5033534;28;20104;-71
2021/01/25 09:48:29;;;;;;;21.42;13.23;;;;;;;;;;5032287;28;20084;-71
2021/01/25 09:50:55;;;;;;;19.40;13.15;;;;;;;;;;5033337;28;20583;-71
2021/01/25 09:53:21;;;;;;;20.85;14.48;;;;;;;;;;5032000;28;20431;-71
2021/01/25 09:55:49;;;;;;;19.50;15.05;;;;;;;;;;5033376;28;20021;-71
2021/01/25 09:58:15;;;;;;;22.60;15.80;;;;;;;;;;5033502;28;20029;-71
2021/01/25 10:00:40;;;;;;;27.55;18.85;;;;;;;;;;5033795;28;20026;-71
2021/01/25 10:03:08;;;;;;;27.83;19.42;;;;;;;;;;5032246;28;20518;-71
2021/01/25 10:05:37;;;;;;;29.33;19.13;;;;;;;;;;5033623;28;20479;-71
2021/01/25 10:08:05;;;;;;;21.48;15.18;;;;;;;;;;5033599;28;20084;-71
2021/01/25 10:10:31;;;;;;;24.88;16.30;;;;;;;;;;5033192;28;20013;-71
2021/01/25 10:12:57;;;;;;;22.00;15.70;;;;;;;;;;5034104;28;20033;-71
2021/01/25 10:15:23;;;;;;;22.20;14.95;;;;;;;;;;5037064;28;20357;-71
2021/01/25 10:17:50;;;;;;;17.92;13.95;;;;;;;;;;5035855;28;20025;-71
2021/01/25 10:20:16;;;;;;;18.00;12.85;;;;;;;;;;5036891;28;20030;-71
2021/01/25 10:22:41;;;;;;;18.70;13.02;;;;;;;;;;5036520;28;20494;-71
2021/01/25 10:25:09;;;;;;;19.00;11.95;;;;;;;;;;5037234;28;20108;-71
2021/01/25 10:27:35;;;;;;;13.05;9.25;;;;;;;;;;5035950;28;20375;-71
2021/01/25 10:30:01;;;;;;;12.90;9.00;;;;;;;;;;5036491;28;20017;-71
2021/01/25 10:32:27;;;;;;;10.45;8.68;;;;;;;;;;5036761;28;20017;-71
2021/01/25 10:34:53;;;;;;;15.85;9.82;;;;;;;;;;5036817;28;20006;-71
2021/01/25 10:37:19;;;;;;;13.35;8.60;;;;;;;;;;5034189;28;20033;-71
2021/01/25 10:39:45;;;;;;;13.40;8.27;;;;;;;;;;5032484;28;20029;-71
2021/01/25 10:42:10;;;;;;;9.70;7.28;;;;;;;;;;5034673;28;20033;-71
2021/01/25 10:44:36;;;;;;;10.65;8.23;;;;;;;;;;5034183;28;20025;-71
2021/01/25 10:47:03;;;;;;;10.98;8.02;;;;;;;;;;5036392;28;20041;-71
2021/01/25 10:49:28;;;;;;;13.65;7.93;;;;;;;;;;5036549;28;20460;-71
2021/01/25 10:51:54;;;;;;;11.13;8.15;;;;;;;;;;5036341;28;20017;-71
2021/01/25 10:54:23;;;;;;;11.60;8.80;;;;;;;;;;5035121;28;20021;-71
2021/01/25 10:56:49;;;;;;;12.85;8.93;;;;;;;;;;5035085;28;20052;-71
2021/01/25 10:59:15;;;;;;;11.10;8.25;;;;;;;;;;5035301;28;20108;-70
2021/01/25 11:01:40;;;;;;;10.43;7.45;;;;;;;;;;5035080;28;20539;-70
2021/01/25 11:04:05;;;;;;;15.95;9.60;;;;;;;;;;5035370;28;20028;-70
2021/01/25 11:06:31;;;;;;;13.82;8.27;;;;;;;;;;5035984;28;20038;-69
2021/01/25 11:08:57;;;;;;;12.95;8.77;;;;;;;;;;5035443;28;20453;-70
2021/01/25 11:11:23;;;;;;;11.98;8.45;;;;;;;;;;5035998;28;20105;-70
2021/01/25 11:13:48;;;;;;;12.40;8.30;;;;;;;;;;5035753;28;20475;-70
2021/01/25 11:16:14;;;;;;;12.63;8.32;;;;;;;;;;5033629;28;20033;-69
2021/01/25 11:18:39;;;;;;;14.32;9.25;;;;;;;;;;5034240;28;20112;-69
2021/01/25 11:21:05;;;;;;;16.13;9.77;;;;;;;;;;5031511;28;20060;-69
2021/01/25 11:23:30;;;;;;;16.13;9.48;;;;;;;;;;5033927;28;20025;-71
2021/01/25 11:25:56;;;;;;;16.30;10.45;;;;;;;;;;5032547;28;20030;-71
2021/01/25 11:28:22;;;;;;;13.07;9.55;;;;;;;;;;5035631;28;20436;-71
2021/01/25 11:30:48;;;;;;;11.02;7.43;;;;;;;;;;5034216;28;20017;-71
2021/01/25 11:33:14;;;;;;;12.18;7.63;;;;;;;;;;5034365;28;20018;-70
2021/01/25 11:35:39;;;;;;;8.90;6.40;;;;;;;;;;5035348;28;20055;-70
2021/01/25 11:38:07;;;;;;;15.85;9.23;;;;;;;;;;5035741;28;20025;-70
2021/01/25 11:40:33;;;;;;;14.93;8.95;;;;;;;;;;5034226;28;20035;-70
2021/01/25 11:43:00;;;;;;;12.55;8.65;;;;;;;;;;5035486;28;20112;-70
2021/01/25 11:45:26;;;;;;;11.88;7.45;;;;;;;;;;5035443;28;20030;-70
2021/01/25 11:47:51;;;;;;;8.48;7.15;;;;;;;;;;5035347;28;20082;-70
2021/01/25 11:50:17;;;;;;;9.38;7.00;;;;;;;;;;5033498;28;20021;-71
2021/01/25 11:52:43;;;;;;;9.68;7.03;;;;;;;;;;5034933;28;20017;-71
2021/01/25 11:55:08;;;;;;;10.25;6.15;;;;;;;;;;5034493;28;20128;-70
2021/01/25 11:57:34;;;;;;;6.82;5.55;;;;;;;;;;5034645;28;20384;-70
2021/01/25 12:00:00;;;;;;;8.48;5.97;;;;;;;;;;5034519;28;20029;-70
2021/01/25 12:02:25;;;;;;;6.32;5.45;;;;;;;;;;5035031;28;20021;-69
2021/01/25 12:04:51;;;;;;;7.57;5.88;;;;;;;;;;5035306;28;20032;-69
2021/01/25 12:07:18;;;;;;;7.22;5.70;;;;;;;;;;5034140;28;20494;-70
2021/01/25 12:09:44;;;;;;;8.13;5.78;;;;;;;;;;5034878;28;20033;-70
2021/01/25 12:12:10;;;;;;;6.53;5.40;;;;;;;;;;5034828;28;20476;-71
2021/01/25 12:14:35;;;;;;;6.25;4.95;;;;;;;;;;5034952;28;20099;-70
2021/01/25 12:17:01;;;;;;;9.00;6.50;;;;;;;;;;5035053;28;20025;-70
2021/01/25 12:19:27;;;;;;;9.07;6.78;;;;;;;;;;5034787;28;20029;-70
2021/01/25 12:21:52;;;;;;;8.25;6.65;;;;;;;;;;5035250;28;20398;-70
2021/01/25 12:24:18;;;;;;;8.38;5.93;;;;;;;;;;5034992;28;20082;-70
2021/01/25 12:26:43;;;;;;;12.20;7.63;;;;;;;;;;5034737;28;20361;-71
2021/01/25 12:29:09;;;;;;;8.40;6.22;;;;;;;;;;5034700;28;20025;-70
2021/01/25 12:31:34;;;;;;;13.68;8.60;;;;;;;;;;5034502;28;20399;-70
2021/01/25 12:34:00;;;;;;;17.13;10.00;;;;;;;;;;5034397;28;20476;-71
2021/01/25 12:36:25;;;;;;;16.35;9.95;;;;;;;;;;5033836;28;20106;-70
2021/01/25 12:38:51;;;;;;;15.60;10.30;;;;;;;;;;5034191;28;20037;-70
2021/01/25 12:41:16;;;;;;;17.05;10.68;;;;;;;;;;5034126;28;20028;-70
2021/01/25 12:43:42;;;;;;;12.70;8.73;;;;;;;;;;5032883;28;20033;-71
2021/01/25 12:46:08;;;;;;;12.75;8.77;;;;;;;;;;5034008;28;20140;-70
2021/01/25 12:48:34;;;;;;;16.00;10.25;;;;;;;;;;5034281;28;20029;-71
2021/01/25 12:50:59;;;;;;;12.55;8.30;;;;;;;;;;5033485;28;20071;-70
2021/01/25 12:53:26;;;;;;;13.57;9.70;;;;;;;;;;5032458;28;20112;-71
2021/01/25 12:55:51;;;;;;;12.15;8.48;;;;;;;;;;5031437;28;20121;-70
2021/01/25 12:58:17;;;;;;;12.75;7.60;;;;;;;;;;5032360;28;20112;-69
2021/01/25 13:00:42;;;;;;;19.65;10.43;;;;;;;;;;5033375;28;20029;-70
2021/01/25 13:03:09;;;;;;;15.02;9.15;;;;;;;;;;5032068;28;20040;-70
2021/01/25 13:05:35;;;;;;;13.15;9.15;;;;;;;;;;5033727;28;20122;-70
2021/01/25 13:08:01;;;;;;;13.57;8.98;;;;;;;;;;5033693;28;20108;-71
2021/01/25 13:10:27;;;;;;;15.15;10.43;;;;;;;;;;5033019;28;20108;-71
2021/01/25 13:12:53;;;;;;;14.23;9.30;;;;;;;;;;5033319;28;20567;-70
2021/01/25 13:15:20;;;;;;;17.77;10.77;;;;;;;;;;5033177;28;20028;-70
2021/01/25 13:17:46;;;;;;;13.02;8.45;;;;;;;;;;5033630;28;20044;-70
2021/01/25 13:20:14;;;;;;;13.30;8.68;;;;;;;;;;5033664;28;20543;-70
2021/01/25 13:22:40;;;;;;;14.60;9.45;;;;;;;;;;5033769;28;20124;-70
2021/01/25 13:25:06;;;;;;;11.80;8.25;;;;;;;;;;5033658;28;20540;-70
2021/01/25 13:27:31;;;;;;;13.57;8.10;;;;;;;;;;5032724;28;20108;-69
2021/01/25 13:29:57;;;;;;;13.25;8.70;;;;;;;;;;5033040;28;20071;-70
2021/01/25 13:32:22;;;;;;;8.25;5.43;;;;;;;;;;5033324;28;20478;-70
2021/01/25 13:34:48;;;;;;;12.32;7.60;;;;;;;;;;5033390;28;20391;-70
2021/01/25 13:37:16;;;;;;;14.07;9.90;;;;;;;;;;5033462;28;20511;-71
2021/01/25 13:39:42;;;;;;;13.40;9.38;;;;;;;;;;5033669;28;20484;-70
2021/01/25 13:42:08;;;;;;;15.18;9.63;;;;;;;;;;5033399;28;20033;-70
2021/01/25 13:44:34;;;;;;;14.43;9.10;;;;;;;;;;5033266;28;20025;-71
2021/01/25 13:46:59;;;;;;;14.85;10.35;;;;;;;;;;5033207;28;20120;-70
2021/01/25 13:49:24;;;;;;;14.98;9.55;;;;;;;;;;5031586;28;20369;-70
2021/01/25 13:51:50;;;;;;;26.10;13.77;;;;;;;;;;5031274;28;20578;-70
2021/01/25 13:54:15;;;;;;;72.20;43.05;;;;;;;;;;5031222;28;20087;-70
2021/01/25 13:56:42;;;;;;;94.10;54.03;;;;;;;;;;5032422;28;20013;-70
2021/01/25 13:59:08;;;;;;;35.13;21.75;;;;;;;;;;5032492;28;20124;-70
2021/01/25 14:01:33;;;;;;;27.27;17.00;;;;;;;;;;5032654;28;20100;-71
2021/01/25 14:03:59;;;;;;;14.50;9.75;;;;;;;;;;5032651;28;20395;-71
2021/01/25 14:06:25;;;;;;;109.50;52.55;;;;;;;;;;5032766;28;20071;-70
2021/01/25 14:08:50;;;;;;;12.07;7.65;;;;;;;;;;5032895;28;20079;-70
2021/01/25 14:11:16;;;;;;;14.45;10.60;;;;;;;;;;5032901;28;20018;-70
2021/01/25 14:13:42;;;;;;;55.88;41.33;;;;;;;;;;5031262;28;20038;-71
2021/01/25 14:16:08;;;;;;;24.00;16.52;;;;;;;;;;5032777;28;20031;-71
2021/01/25 14:18:35;;;;;;;16.15;10.23;;;;;;;;;;5032824;28;20385;-70
2021/01/25 14:21:01;;;;;;;13.90;9.82;;;;;;;;;;5032795;28;20021;-70
2021/01/25 14:23:26;;;;;;;26.90;17.88;;;;;;;;;;5032833;28;20029;-70
2021/01/25 14:25:52;;;;;;;45.08;24.08;;;;;;;;;;5030172;28;20541;-70
2021/01/25 14:28:17;;;;;;;26.63;15.77;;;;;;;;;;5032066;28;20026;-70
2021/01/25 14:30:45;;;;;;;11.25;7.45;;;;;;;;;;5031427;28;20040;-71
2021/01/25 14:33:11;;;;;;;13.00;8.73;;;;;;;;;;5032566;28;20064;-71
2021/01/25 14:35:36;;;;;;;18.17;10.63;;;;;;;;;;5032636;28;20049;-71